sensor_id;sensor_type;location;lat;lon;timestamp;pressure;altitude;pressure_sealevel;temperature;humidity
68329;BME280;55182;56.864;60.554;2022-08-19T00:00:31;99938.34;;;9.19;90.93
68329;BME280;55182;56.864;60.554;2022-08-19T00:02:57;99935.66;;;9.18;90.87
68329;BME280;55182;56.864;60.554;2022-08-19T00:05:22;99932.09;;;9.16;90.77
68329;BME280;55182;56.864;60.554;2022-08-19T00:07:51;99937.38;;;9.17;91.18
68329;BME280;55182;56.864;60.554;2022-08-19T00:10:17;99945.22;;;9.17;91.05
68329;BME280;55182;56.864;60.554;2022-08-19T00:12:42;99949.63;;;9.18;91.06
68329;BME280;55182;56.864;60.554;2022-08-19T00:15:12;99954.13;;;9.22;91.43
68329;BME280;55182;56.864;60.554;2022-08-19T00:17:41;99955.91;;;9.23;90.86
68329;BME280;55182;56.864;60.554;2022-08-19T00:20:06;99961.22;;;9.25;90.90
68329;BME280;55182;56.864;60.554;2022-08-19T00:22:32;99970.00;;;9.27;90.98
68329;BME280;55182;56.864;60.554;2022-08-19T00:24:58;99974.34;;;9.26;91.07
68329;BME280;55182;56.864;60.554;2022-08-19T00:27:26;99979.75;;;9.31;91.34
68329;BME280;55182;56.864;60.554;2022-08-19T00:29:51;99978.88;;;9.31;91.24
68329;BME280;55182;56.864;60.554;2022-08-19T00:32:17;99979.84;;;9.34;91.29
68329;BME280;55182;56.864;60.554;2022-08-19T00:34:42;99985.97;;;9.35;91.68
68329;BME280;55182;56.864;60.554;2022-08-19T00:37:07;99980.69;;;9.33;91.87
68329;BME280;55182;56.864;60.554;2022-08-19T00:39:33;99974.53;;;9.31;91.91
68329;BME280;55182;56.864;60.554;2022-08-19T00:41:58;99965.63;;;9.26;91.82
68329;BME280;55182;56.864;60.554;2022-08-19T00:44:25;99972.28;;;9.18;91.65
68329;BME280;55182;56.864;60.554;2022-08-19T00:46:52;99978.16;;;9.11;92.49
68329;BME280;55182;56.864;60.554;2022-08-19T00:49:36;99972.88;;;9.09;92.74
68329;BME280;55182;56.864;60.554;2022-08-19T00:52:12;99982.44;;;9.09;93.61
68329;BME280;55182;56.864;60.554;2022-08-19T00:54:39;99998.13;;;9.09;95.88
68329;BME280;55182;56.864;60.554;2022-08-19T00:57:06;99992.91;;;9.09;95.92
68329;BME280;55182;56.864;60.554;2022-08-19T00:59:34;100007.06;;;9.14;95.91
68329;BME280;55182;56.864;60.554;2022-08-19T01:02:00;100015.00;;;9.17;95.99
68329;BME280;55182;56.864;60.554;2022-08-19T01:04:25;100007.28;;;9.20;95.58
68329;BME280;55182;56.864;60.554;2022-08-19T01:06:50;99998.63;;;9.22;94.98
68329;BME280;55182;56.864;60.554;2022-08-19T01:09:16;99997.13;;;9.29;95.29
68329;BME280;55182;56.864;60.554;2022-08-19T01:11:41;99999.03;;;9.33;93.92
68329;BME280;55182;56.864;60.554;2022-08-19T01:14:12;99995.69;;;9.37;94.04
68329;BME280;55182;56.864;60.554;2022-08-19T01:16:38;100003.47;;;9.36;93.64
68329;BME280;55182;56.864;60.554;2022-08-19T01:19:09;100009.72;;;9.39;92.61
68329;BME280;55182;56.864;60.554;2022-08-19T01:21:38;100001.19;;;9.45;91.79
68329;BME280;55182;56.864;60.554;2022-08-19T01:24:05;100008.34;;;9.50;91.41
68329;BME280;55182;56.864;60.554;2022-08-19T01:26:30;100001.59;;;9.57;92.17
68329;BME280;55182;56.864;60.554;2022-08-19T01:28:59;100003.53;;;9.63;91.85
68329;BME280;55182;56.864;60.554;2022-08-19T01:31:25;100008.91;;;9.66;91.61
68329;BME280;55182;56.864;60.554;2022-08-19T01:33:52;100016.81;;;9.67;91.78
68329;BME280;55182;56.864;60.554;2022-08-19T01:36:24;100018.53;;;9.67;92.18
68329;BME280;55182;56.864;60.554;2022-08-19T01:38:50;100029.00;;;9.67;91.82
68329;BME280;55182;56.864;60.554;2022-08-19T01:41:15;100034.22;;;9.65;91.86
68329;BME280;55182;56.864;60.554;2022-08-19T01:43:42;100031.50;;;9.64;91.99
68329;BME280;55182;56.864;60.554;2022-08-19T01:46:07;100034.25;;;9.67;92.40
68329;BME280;55182;56.864;60.554;2022-08-19T01:48:37;100031.72;;;9.70;91.17
68329;BME280;55182;56.864;60.554;2022-08-19T01:51:03;100037.97;;;9.73;90.78
68329;BME280;55182;56.864;60.554;2022-08-19T01:53:29;100035.31;;;9.72;90.75
68329;BME280;55182;56.864;60.554;2022-08-19T01:55:58;100043.16;;;9.72;90.72
68329;BME280;55182;56.864;60.554;2022-08-19T01:58:24;100041.47;;;9.74;90.79
68329;BME280;55182;56.864;60.554;2022-08-19T02:00:51;100038.97;;;9.77;90.69
68329;BME280;55182;56.864;60.554;2022-08-19T02:03:17;100050.56;;;9.83;89.73
68329;BME280;55182;56.864;60.554;2022-08-19T02:05:43;100057.69;;;9.88;89.99
68329;BME280;55182;56.864;60.554;2022-08-19T02:08:09;100057.91;;;9.94;90.12
68329;BME280;55182;56.864;60.554;2022-08-19T02:10:37;100062.38;;;9.98;89.89
68329;BME280;55182;56.864;60.554;2022-08-19T02:13:03;100060.88;;;10.04;90.33
68329;BME280;55182;56.864;60.554;2022-08-19T02:15:28;100065.31;;;10.07;90.11
68329;BME280;55182;56.864;60.554;2022-08-19T02:17:54;100063.59;;;10.07;91.02
68329;BME280;55182;56.864;60.554;2022-08-19T02:20:19;100065.38;;;10.08;90.92
68329;BME280;55182;56.864;60.554;2022-08-19T02:22:45;100055.72;;;10.07;90.51
68329;BME280;55182;56.864;60.554;2022-08-19T02:25:12;100051.38;;;10.08;91.34
68329;BME280;55182;56.864;60.554;2022-08-19T02:27:39;100048.91;;;10.13;91.59
68329;BME280;55182;56.864;60.554;2022-08-19T02:30:05;100055.16;;;10.16;90.98
68329;BME280;55182;56.864;60.554;2022-08-19T02:32:31;100056.22;;;10.21;90.01
68329;BME280;55182;56.864;60.554;2022-08-19T02:34:57;100050.19;;;10.24;89.93
68329;BME280;55182;56.864;60.554;2022-08-19T02:37:22;100061.69;;;10.27;89.66
68329;BME280;55182;56.864;60.554;2022-08-19T02:39:47;100062.66;;;10.31;89.02
68329;BME280;55182;56.864;60.554;2022-08-19T02:42:13;100063.72;;;10.36;89.12
68329;BME280;55182;56.864;60.554;2022-08-19T02:44:38;100064.78;;;10.43;89.34
68329;BME280;55182;56.864;60.554;2022-08-19T02:47:04;100058.09;;;10.51;88.78
68329;BME280;55182;56.864;60.554;2022-08-19T02:49:30;100065.34;;;10.59;88.36
68329;BME280;55182;56.864;60.554;2022-08-19T02:51:56;100055.88;;;10.65;87.79
68329;BME280;55182;56.864;60.554;2022-08-19T02:54:21;100058.66;;;10.69;87.83
68329;BME280;55182;56.864;60.554;2022-08-19T02:56:47;100064.97;;;10.76;87.33
68329;BME280;55182;56.864;60.554;2022-08-19T02:59:12;100063.38;;;10.81;87.75
68329;BME280;55182;56.864;60.554;2022-08-19T03:01:38;100067.94;;;10.86;87.32
68329;BME280;55182;56.864;60.554;2022-08-19T03:04:05;100082.13;;;10.93;85.48
68329;BME280;55182;56.864;60.554;2022-08-19T03:06:31;100085.78;;;10.98;85.28
68329;BME280;55182;56.864;60.554;2022-08-19T03:08:56;100092.13;;;11.05;84.76
68329;BME280;55182;56.864;60.554;2022-08-19T03:11:23;100080.88;;;11.09;83.00
68329;BME280;55182;56.864;60.554;2022-08-19T03:13:49;100094.22;;;11.17;82.79
68329;BME280;55182;56.864;60.554;2022-08-19T03:16:14;100093.50;;;11.22;81.97
68329;BME280;55182;56.864;60.554;2022-08-19T03:18:40;100091.97;;;11.29;81.41
68329;BME280;55182;56.864;60.554;2022-08-19T03:21:05;100089.34;;;11.29;80.51
68329;BME280;55182;56.864;60.554;2022-08-19T03:23:31;100084.19;;;11.32;81.71
68329;BME280;55182;56.864;60.554;2022-08-19T03:25:56;100081.59;;;11.33;82.06
68329;BME280;55182;56.864;60.554;2022-08-19T03:28:22;100090.47;;;11.37;82.47
68329;BME280;55182;56.864;60.554;2022-08-19T03:30:57;100096.63;;;11.39;80.47
68329;BME280;55182;56.864;60.554;2022-08-19T03:33:23;100088.84;;;11.42;79.77
68329;BME280;55182;56.864;60.554;2022-08-19T03:36:03;100088.19;;;11.49;79.67
68329;BME280;55182;56.864;60.554;2022-08-19T03:38:28;100093.56;;;11.54;79.89
68329;BME280;55182;56.864;60.554;2022-08-19T03:40:54;100092.00;;;11.60;79.84
68329;BME280;55182;56.864;60.554;2022-08-19T03:43:19;100104.38;;;11.64;79.62
68329;BME280;55182;56.864;60.554;2022-08-19T03:45:45;100101.03;;;11.70;79.33
68329;BME280;55182;56.864;60.554;2022-08-19T03:48:10;100094.91;;;11.70;79.75
68329;BME280;55182;56.864;60.554;2022-08-19T03:50:39;100108.03;;;11.70;79.27
68329;BME280;55182;56.864;60.554;2022-08-19T03:53:04;100101.19;;;11.75;79.64
68329;BME280;55182;56.864;60.554;2022-08-19T03:55:30;100103.16;;;11.82;79.27
68329;BME280;55182;56.864;60.554;2022-08-19T03:57:55;100101.56;;;11.88;79.06
68329;BME280;55182;56.864;60.554;2022-08-19T04:00:21;100105.38;;;12.00;77.80
68329;BME280;55182;56.864;60.554;2022-08-19T04:02:46;100110.94;;;12.10;75.27
68329;BME280;55182;56.864;60.554;2022-08-19T04:05:12;100109.47;;;12.22;76.04
68329;BME280;55182;56.864;60.554;2022-08-19T04:07:37;100114.94;;;12.31;76.05
68329;BME280;55182;56.864;60.554;2022-08-19T04:10:03;100113.34;;;12.36;76.13
68329;BME280;55182;56.864;60.554;2022-08-19T04:12:28;100115.28;;;12.43;77.51
68329;BME280;55182;56.864;60.554;2022-08-19T04:14:54;100116.63;;;12.62;76.51
68329;BME280;55182;56.864;60.554;2022-08-19T04:17:19;100109.19;;;12.82;73.63
68329;BME280;55182;56.864;60.554;2022-08-19T04:19:44;100102.28;;;12.87;73.19
68329;BME280;55182;56.864;60.554;2022-08-19T04:22:10;100111.94;;;12.86;73.29
68329;BME280;55182;56.864;60.554;2022-08-19T04:24:35;100109.28;;;12.85;72.92
68329;BME280;55182;56.864;60.554;2022-08-19T04:27:01;100109.94;;;12.76;73.25
68329;BME280;55182;56.864;60.554;2022-08-19T04:29:27;100116.03;;;12.73;73.72
68329;BME280;55182;56.864;60.554;2022-08-19T04:31:53;100110.00;;;12.78;73.44
68329;BME280;55182;56.864;60.554;2022-08-19T04:34:20;100105.69;;;12.81;73.45
68329;BME280;55182;56.864;60.554;2022-08-19T04:36:46;100103.13;;;12.84;72.94
68329;BME280;55182;56.864;60.554;2022-08-19T04:39:14;100097.84;;;12.83;73.45
68329;BME280;55182;56.864;60.554;2022-08-19T04:41:39;100089.63;;;12.70;73.73
68329;BME280;55182;56.864;60.554;2022-08-19T04:44:05;100095.56;;;12.62;73.27
68329;BME280;55182;56.864;60.554;2022-08-19T04:46:30;100079.41;;;12.46;73.92
68329;BME280;55182;56.864;60.554;2022-08-19T04:48:56;100075.59;;;12.34;74.78
68329;BME280;55182;56.864;60.554;2022-08-19T04:51:21;100084.19;;;12.27;74.81
68329;BME280;55182;56.864;60.554;2022-08-19T04:53:47;100095.47;;;12.23;74.80
68329;BME280;55182;56.864;60.554;2022-08-19T04:56:13;100084.84;;;12.19;75.10
68329;BME280;55182;56.864;60.554;2022-08-19T04:58:40;100083.94;;;12.17;76.03
68329;BME280;55182;56.864;60.554;2022-08-19T05:01:06;100086.66;;;12.20;76.04
68329;BME280;55182;56.864;60.554;2022-08-19T05:03:32;100095.81;;;12.36;75.10
68329;BME280;55182;56.864;60.554;2022-08-19T05:05:57;100085.50;;;12.44;75.91
68329;BME280;55182;56.864;60.554;2022-08-19T05:08:23;100083.03;;;12.52;75.26
68329;BME280;55182;56.864;60.554;2022-08-19T05:10:50;100097.22;;;12.58;73.69
68329;BME280;55182;56.864;60.554;2022-08-19T05:13:16;100086.69;;;12.57;74.19
68329;BME280;55182;56.864;60.554;2022-08-19T05:15:43;100081.34;;;12.54;74.10
68329;BME280;55182;56.864;60.554;2022-08-19T05:18:09;100078.91;;;12.61;74.11
68329;BME280;55182;56.864;60.554;2022-08-19T05:20:37;100075.56;;;12.68;74.03
68329;BME280;55182;56.864;60.554;2022-08-19T05:23:02;100082.88;;;12.82;74.19
68329;BME280;55182;56.864;60.554;2022-08-19T05:25:28;100074.22;;;12.87;72.87
68329;BME280;55182;56.864;60.554;2022-08-19T05:27:53;100079.59;;;12.92;72.37
68329;BME280;55182;56.864;60.554;2022-08-19T05:30:18;100071.94;;;13.01;72.26
68329;BME280;55182;56.864;60.554;2022-08-19T05:32:44;100080.16;;;13.16;71.93
68329;BME280;55182;56.864;60.554;2022-08-19T05:35:09;100076.97;;;13.30;71.68
68329;BME280;55182;56.864;60.554;2022-08-19T05:37:35;100060.41;;;13.35;71.44
68329;BME280;55182;56.864;60.554;2022-08-19T05:40:01;100068.44;;;13.41;70.95
68329;BME280;55182;56.864;60.554;2022-08-19T05:42:26;100061.50;;;13.45;70.93
68329;BME280;55182;56.864;60.554;2022-08-19T05:44:53;100057.91;;;13.43;70.49
68329;BME280;55182;56.864;60.554;2022-08-19T05:47:18;100072.72;;;13.36;70.85
68329;BME280;55182;56.864;60.554;2022-08-19T05:49:44;100063.78;;;13.30;71.04
68329;BME280;55182;56.864;60.554;2022-08-19T05:52:11;100064.59;;;13.25;71.99
68329;BME280;55182;56.864;60.554;2022-08-19T05:54:37;100063.78;;;13.30;72.58
68329;BME280;55182;56.864;60.554;2022-08-19T05:57:03;100048.31;;;13.45;71.80
68329;BME280;55182;56.864;60.554;2022-08-19T05:59:28;100045.03;;;13.57;71.19
68329;BME280;55182;56.864;60.554;2022-08-19T06:01:54;100042.41;;;13.58;70.27
68329;BME280;55182;56.864;60.554;2022-08-19T06:04:20;100046.03;;;13.63;70.64
68329;BME280;55182;56.864;60.554;2022-08-19T06:06:47;100057.47;;;13.65;70.69
68329;BME280;55182;56.864;60.554;2022-08-19T06:09:13;100043.50;;;13.69;70.83
68329;BME280;55182;56.864;60.554;2022-08-19T06:11:40;100041.91;;;13.77;70.60
68329;BME280;55182;56.864;60.554;2022-08-19T06:14:07;100034.16;;;13.87;69.93
68329;BME280;55182;56.864;60.554;2022-08-19T06:16:33;100024.63;;;13.95;70.72
68329;BME280;55182;56.864;60.554;2022-08-19T06:19:00;100043.28;;;14.04;70.12
68329;BME280;55182;56.864;60.554;2022-08-19T06:21:27;100036.25;;;14.06;69.25
68329;BME280;55182;56.864;60.554;2022-08-19T06:23:53;100042.50;;;14.11;68.88
68329;BME280;55182;56.864;60.554;2022-08-19T06:26:19;100039.94;;;14.14;69.10
68329;BME280;55182;56.864;60.554;2022-08-19T06:28:45;100026.06;;;14.27;69.95
68329;BME280;55182;56.864;60.554;2022-08-19T06:31:10;100030.88;;;14.50;69.50
68329;BME280;55182;56.864;60.554;2022-08-19T06:33:36;100032.00;;;14.66;67.86
68329;BME280;55182;56.864;60.554;2022-08-19T06:36:01;100034.72;;;14.72;68.12
68329;BME280;55182;56.864;60.554;2022-08-19T06:38:27;100027.88;;;14.84;68.82
68329;BME280;55182;56.864;60.554;2022-08-19T06:41:00;100032.56;;;15.04;66.66
68329;BME280;55182;56.864;60.554;2022-08-19T06:43:25;100029.28;;;15.25;65.97
68329;BME280;55182;56.864;60.554;2022-08-19T06:45:51;100032.06;;;15.34;65.17
68329;BME280;55182;56.864;60.554;2022-08-19T06:48:16;100033.88;;;15.41;64.97
68329;BME280;55182;56.864;60.554;2022-08-19T06:50:41;100032.25;;;15.49;65.18
68329;BME280;55182;56.864;60.554;2022-08-19T06:53:07;100032.25;;;15.51;64.42
68329;BME280;55182;56.864;60.554;2022-08-19T06:55:32;100028.78;;;15.55;63.43
68329;BME280;55182;56.864;60.554;2022-08-19T06:57:58;100020.97;;;15.64;64.20
68329;BME280;55182;56.864;60.554;2022-08-19T07:00:26;100037.88;;;15.80;62.04
68329;BME280;55182;56.864;60.554;2022-08-19T07:02:51;100015.06;;;15.89;62.69
68329;BME280;55182;56.864;60.554;2022-08-19T07:05:17;100018.75;;;16.07;61.45
68329;BME280;55182;56.864;60.554;2022-08-19T07:07:42;100029.50;;;16.25;61.11
68329;BME280;55182;56.864;60.554;2022-08-19T07:10:08;100021.59;;;16.28;61.41
68329;BME280;55182;56.864;60.554;2022-08-19T07:12:33;100000.44;;;16.31;60.84
68329;BME280;55182;56.864;60.554;2022-08-19T07:14:59;100024.25;;;16.33;59.99
68329;BME280;55182;56.864;60.554;2022-08-19T07:17:24;100026.91;;;16.33;60.03
68329;BME280;55182;56.864;60.554;2022-08-19T07:19:50;100009.31;;;16.36;59.98
68329;BME280;55182;56.864;60.554;2022-08-19T07:22:15;100019.94;;;16.39;59.74
68329;BME280;55182;56.864;60.554;2022-08-19T07:24:41;100010.19;;;16.38;59.97
68329;BME280;55182;56.864;60.554;2022-08-19T07:27:06;100004.94;;;16.41;59.87
68329;BME280;55182;56.864;60.554;2022-08-19T07:29:32;100001.47;;;16.53;60.40
68329;BME280;55182;56.864;60.554;2022-08-19T07:31:59;100014.84;;;16.70;60.09
68329;BME280;55182;56.864;60.554;2022-08-19T07:34:25;100004.34;;;16.82;58.35
68329;BME280;55182;56.864;60.554;2022-08-19T07:36:51;100002.63;;;16.90;58.09
68329;BME280;55182;56.864;60.554;2022-08-19T07:39:19;99990.31;;;16.99;58.53
68329;BME280;55182;56.864;60.554;2022-08-19T07:41:45;99999.19;;;17.10;58.63
68329;BME280;55182;56.864;60.554;2022-08-19T07:44:11;99994.78;;;17.16;58.18
68329;BME280;55182;56.864;60.554;2022-08-19T07:46:38;99981.53;;;17.18;58.19
68329;BME280;55182;56.864;60.554;2022-08-19T07:49:04;100002.75;;;17.15;55.44
68329;BME280;55182;56.864;60.554;2022-08-19T07:51:30;99984.16;;;17.10;55.60
68329;BME280;55182;56.864;60.554;2022-08-19T07:53:55;99987.72;;;17.08;55.43
68329;BME280;55182;56.864;60.554;2022-08-19T07:56:21;99988.56;;;17.07;55.64
68329;BME280;55182;56.864;60.554;2022-08-19T07:58:47;99992.09;;;17.06;55.58
68329;BME280;55182;56.864;60.554;2022-08-19T08:01:14;99982.38;;;17.05;56.37
68329;BME280;55182;56.864;60.554;2022-08-19T08:03:40;99985.06;;;17.08;56.28
68329;BME280;55182;56.864;60.554;2022-08-19T08:06:06;99974.47;;;17.17;56.47
68329;BME280;55182;56.864;60.554;2022-08-19T08:08:31;99980.69;;;17.23;55.40
68329;BME280;55182;56.864;60.554;2022-08-19T08:10:56;99967.44;;;17.28;54.92
68329;BME280;55182;56.864;60.554;2022-08-19T08:13:22;99963.94;;;17.38;55.00
68329;BME280;55182;56.864;60.554;2022-08-19T08:15:47;99955.16;;;17.48;53.58
68329;BME280;55182;56.864;60.554;2022-08-19T08:18:13;99953.41;;;17.60;52.31
68329;BME280;55182;56.864;60.554;2022-08-19T08:20:38;99949.88;;;17.67;50.83
68329;BME280;55182;56.864;60.554;2022-08-19T08:23:04;99943.72;;;17.74;51.06
68329;BME280;55182;56.864;60.554;2022-08-19T08:25:29;99953.47;;;17.84;51.45
68329;BME280;55182;56.864;60.554;2022-08-19T08:27:55;99929.59;;;17.93;50.20
68329;BME280;55182;56.864;60.554;2022-08-19T08:30:21;99927.81;;;18.03;50.31
68329;BME280;55182;56.864;60.554;2022-08-19T08:32:47;99922.50;;;18.12;50.02
68329;BME280;55182;56.864;60.554;2022-08-19T08:35:15;99931.34;;;18.11;48.72
68329;BME280;55182;56.864;60.554;2022-08-19T08:37:41;99913.66;;;18.13;49.44
68329;BME280;55182;56.864;60.554;2022-08-19T08:40:09;99924.25;;;18.27;50.91
68329;BME280;55182;56.864;60.554;2022-08-19T08:42:39;99921.59;;;18.39;48.82
68329;BME280;55182;56.864;60.554;2022-08-19T08:45:12;99918.91;;;18.42;49.00
68329;BME280;55182;56.864;60.554;2022-08-19T08:47:37;99909.19;;;18.41;49.50
68329;BME280;55182;56.864;60.554;2022-08-19T08:50:06;99913.59;;;18.50;47.99
68329;BME280;55182;56.864;60.554;2022-08-19T08:52:36;99907.34;;;18.71;47.85
68329;BME280;55182;56.864;60.554;2022-08-19T08:55:07;99916.09;;;18.94;47.52
68329;BME280;55182;56.864;60.554;2022-08-19T08:57:35;99909.78;;;19.17;46.57
68329;BME280;55182;56.864;60.554;2022-08-19T09:00:05;99919.38;;;19.45;45.90
68329;BME280;55182;56.864;60.554;2022-08-19T09:02:31;99921.03;;;19.71;45.40
68329;BME280;55182;56.864;60.554;2022-08-19T09:04:57;99912.03;;;19.87;45.23
68329;BME280;55182;56.864;60.554;2022-08-19T09:09:51;99908.25;;;20.12;43.31
68329;BME280;55182;56.864;60.554;2022-08-19T09:15:08;99920.88;;;19.89;43.13
68329;BME280;55182;56.864;60.554;2022-08-19T09:17:35;99891.78;;;19.69;44.86
68329;BME280;55182;56.864;60.554;2022-08-19T09:22:25;99896.19;;;19.72;44.93
68329;BME280;55182;56.864;60.554;2022-08-19T09:24:51;99887.25;;;19.79;44.90
68329;BME280;55182;56.864;60.554;2022-08-19T09:27:17;99892.50;;;19.91;44.16
68329;BME280;55182;56.864;60.554;2022-08-19T09:29:43;99887.03;;;20.02;45.08
68329;BME280;55182;56.864;60.554;2022-08-19T09:32:08;99886.09;;;20.07;43.96
68329;BME280;55182;56.864;60.554;2022-08-19T09:34:34;99877.19;;;20.15;43.54
68329;BME280;55182;56.864;60.554;2022-08-19T09:36:59;99876.22;;;20.19;43.13
68329;BME280;55182;56.864;60.554;2022-08-19T09:39:25;99875.19;;;20.33;43.21
68329;BME280;55182;56.864;60.554;2022-08-19T09:41:50;99860.75;;;20.57;42.81
68329;BME280;55182;56.864;60.554;2022-08-19T09:44:16;99851.50;;;20.87;42.71
68329;BME280;55182;56.864;60.554;2022-08-19T09:46:42;99840.34;;;21.21;41.71
68329;BME280;55182;56.864;60.554;2022-08-19T09:49:07;99847.66;;;21.68;39.56
68329;BME280;55182;56.864;60.554;2022-08-19T09:51:32;99845.81;;;22.23;38.88
68329;BME280;55182;56.864;60.554;2022-08-19T09:53:59;99845.13;;;22.58;37.01
68329;BME280;55182;56.864;60.554;2022-08-19T09:56:25;99845.34;;;22.46;37.61
68329;BME280;55182;56.864;60.554;2022-08-19T09:58:50;99852.34;;;22.05;37.79
68329;BME280;55182;56.864;60.554;2022-08-19T10:01:22;99841.72;;;21.50;38.28
68329;BME280;55182;56.864;60.554;2022-08-19T10:03:52;99848.44;;;21.15;39.14
68329;BME280;55182;56.864;60.554;2022-08-19T10:06:19;99845.25;;;20.90;39.46
68329;BME280;55182;56.864;60.554;2022-08-19T10:08:45;99821.34;;;20.81;40.97
68329;BME280;55182;56.864;60.554;2022-08-19T10:11:10;99834.78;;;20.75;39.43
68329;BME280;55182;56.864;60.554;2022-08-19T10:13:36;99822.47;;;20.64;39.50
68329;BME280;55182;56.864;60.554;2022-08-19T10:16:03;99823.47;;;20.56;39.34
68329;BME280;55182;56.864;60.554;2022-08-19T10:18:29;99843.13;;;20.46;39.75
68329;BME280;55182;56.864;60.554;2022-08-19T10:21:02;99836.09;;;20.35;39.37
68329;BME280;55182;56.864;60.554;2022-08-19T10:23:28;99827.34;;;20.26;39.73
68329;BME280;55182;56.864;60.554;2022-08-19T10:25:53;99819.38;;;20.26;39.81
68329;BME280;55182;56.864;60.554;2022-08-19T10:28:19;99808.66;;;20.29;41.00
68329;BME280;55182;56.864;60.554;2022-08-19T10:30:44;99828.13;;;20.34;39.81
68329;BME280;55182;56.864;60.554;2022-08-19T10:33:10;99808.63;;;20.32;40.17
68329;BME280;55182;56.864;60.554;2022-08-19T10:35:35;99793.59;;;20.28;40.77
68329;BME280;55182;56.864;60.554;2022-08-19T10:38:01;99798.88;;;20.29;41.21
68329;BME280;55182;56.864;60.554;2022-08-19T10:40:26;99786.41;;;20.34;40.33
68329;BME280;55182;56.864;60.554;2022-08-19T10:42:53;99807.66;;;20.39;40.19
68329;BME280;55182;56.864;60.554;2022-08-19T10:45:18;99786.34;;;20.42;40.93
68329;BME280;55182;56.864;60.554;2022-08-19T10:47:43;99797.84;;;20.41;41.67
68329;BME280;55182;56.864;60.554;2022-08-19T10:50:09;99795.19;;;20.43;42.01
68329;BME280;55182;56.864;60.554;2022-08-19T10:52:34;99788.97;;;20.44;41.69
68329;BME280;55182;56.864;60.554;2022-08-19T10:55:03;99785.41;;;20.46;40.73
68329;BME280;55182;56.864;60.554;2022-08-19T10:57:32;99769.41;;;20.49;40.81
68329;BME280;55182;56.864;60.554;2022-08-19T10:59:57;99785.28;;;20.55;38.54
68329;BME280;55182;56.864;60.554;2022-08-19T11:02:23;99778.09;;;20.62;37.77
68329;BME280;55182;56.864;60.554;2022-08-19T11:04:48;99786.94;;;20.66;37.53
68329;BME280;55182;56.864;60.554;2022-08-19T11:07:14;99783.47;;;20.60;38.35
68329;BME280;55182;56.864;60.554;2022-08-19T11:09:40;99784.38;;;20.59;38.68
68329;BME280;55182;56.864;60.554;2022-08-19T11:12:06;99771.91;;;20.60;38.88
68329;BME280;55182;56.864;60.554;2022-08-19T11:14:31;99775.41;;;20.63;39.07
68329;BME280;55182;56.864;60.554;2022-08-19T11:16:57;99763.84;;;20.66;39.01
68329;BME280;55182;56.864;60.554;2022-08-19T11:19:22;99730.94;;;20.67;39.97
68329;BME280;55182;56.864;60.554;2022-08-19T11:21:48;99754.09;;;20.63;39.17
68329;BME280;55182;56.864;60.554;2022-08-19T11:24:15;99755.00;;;20.62;39.14
68329;BME280;55182;56.864;60.554;2022-08-19T11:26:41;99743.38;;;20.68;40.13
68329;BME280;55182;56.864;60.554;2022-08-19T11:29:07;99745.03;;;20.77;39.26
68329;BME280;55182;56.864;60.554;2022-08-19T11:31:34;99745.84;;;20.82;39.45
68329;BME280;55182;56.864;60.554;2022-08-19T11:34:00;99753.75;;;20.86;39.45
68329;BME280;55182;56.864;60.554;2022-08-19T11:36:26;99746.53;;;20.95;38.55
68329;BME280;55182;56.864;60.554;2022-08-19T11:38:52;99741.16;;;20.99;38.72
68329;BME280;55182;56.864;60.554;2022-08-19T11:41:18;99740.16;;;21.03;37.81
68329;BME280;55182;56.864;60.554;2022-08-19T11:43:44;99726.78;;;21.08;37.67
68329;BME280;55182;56.864;60.554;2022-08-19T11:46:11;99722.31;;;21.08;37.68
68329;BME280;55182;56.864;60.554;2022-08-19T11:48:37;99738.28;;;21.10;37.63
68329;BME280;55182;56.864;60.554;2022-08-19T11:51:08;99745.31;;;21.15;37.80
68329;BME280;55182;56.864;60.554;2022-08-19T11:53:34;99741.66;;;21.23;37.85
68329;BME280;55182;56.864;60.554;2022-08-19T11:56:00;99732.59;;;21.33;38.05
68329;BME280;55182;56.864;60.554;2022-08-19T11:58:26;99730.13;;;21.72;37.64
68329;BME280;55182;56.864;60.554;2022-08-19T12:00:51;99720.00;;;22.74;36.27
68329;BME280;55182;56.864;60.554;2022-08-19T12:03:17;99725.25;;;23.87;34.03
68329;BME280;55182;56.864;60.554;2022-08-19T12:05:42;99717.44;;;24.71;32.51
68329;BME280;55182;56.864;60.554;2022-08-19T12:08:07;99715.94;;;25.45;31.98
68329;BME280;55182;56.864;60.554;2022-08-19T12:10:34;99723.66;;;26.06;29.25
68329;BME280;55182;56.864;60.554;2022-08-19T12:12:59;99726.28;;;26.31;27.01
68329;BME280;55182;56.864;60.554;2022-08-19T12:15:25;99726.81;;;25.92;26.57
68329;BME280;55182;56.864;60.554;2022-08-19T12:17:51;99724.22;;;25.90;27.04
68329;BME280;55182;56.864;60.554;2022-08-19T12:20:16;99717.31;;;25.83;27.16
68329;BME280;55182;56.864;60.554;2022-08-19T12:22:41;99714.97;;;25.98;27.40
68329;BME280;55182;56.864;60.554;2022-08-19T12:25:07;99713.84;;;26.28;27.05
68329;BME280;55182;56.864;60.554;2022-08-19T12:27:33;99703.81;;;26.33;27.01
68329;BME280;55182;56.864;60.554;2022-08-19T12:29:58;99705.41;;;26.62;26.32
68329;BME280;55182;56.864;60.554;2022-08-19T12:32:24;99712.81;;;26.79;26.83
68329;BME280;55182;56.864;60.554;2022-08-19T12:34:49;99706.47;;;26.80;26.63
68329;BME280;55182;56.864;60.554;2022-08-19T12:37:14;99694.84;;;27.02;26.86
68329;BME280;55182;56.864;60.554;2022-08-19T12:39:41;99685.75;;;27.04;26.45
68329;BME280;55182;56.864;60.554;2022-08-19T12:42:06;99684.72;;;27.08;26.36
68329;BME280;55182;56.864;60.554;2022-08-19T12:44:32;99689.97;;;26.89;26.03
68329;BME280;55182;56.864;60.554;2022-08-19T12:46:58;99694.16;;;26.75;25.60